sensor_id;sensor_type;location;lat;lon;timestamp;P1;durP1;ratioP1;P2;durP2;ratioP2
15297;SDS011;7750;48.796;9.026;2023-05-17T00:04:59;4.50;;;1.90;;
15297;SDS011;7750;48.796;9.026;2023-05-17T00:10:00;5.13;;;1.83;;
15297;SDS011;7750;48.796;9.026;2023-05-17T00:15:00;9.60;;;2.03;;
15297;SDS011;7750;48.796;9.026;2023-05-17T00:20:01;3.67;;;2.00;;
15297;SDS011;7750;48.796;9.026;2023-05-17T00:25:03;4.17;;;1.80;;
15297;SDS011;7750;48.796;9.026;2023-05-17T00:30:04;2.87;;;1.83;;
15297;SDS011;7750;48.796;9.026;2023-05-17T00:35:06;9.30;;;2.00;;
15297;SDS011;7750;48.796;9.026;2023-05-17T00:40:07;4.63;;;1.97;;
15297;SDS011;7750;48.796;9.026;2023-05-17T00:45:08;3.17;;;1.50;;
15297;SDS011;7750;48.796;9.026;2023-05-17T00:50:09;3.80;;;1.60;;
15297;SDS011;7750;48.796;9.026;2023-05-17T00:55:11;3.00;;;1.63;;
15297;SDS011;7750;48.796;9.026;2023-05-17T01:00:12;3.60;;;1.80;;
15297;SDS011;7750;48.796;9.026;2023-05-17T01:05:13;7.83;;;1.80;;
15297;SDS011;7750;48.796;9.026;2023-05-17T01:10:14;3.43;;;1.97;;
15297;SDS011;7750;48.796;9.026;2023-05-17T01:15:17;3.50;;;1.67;;
15297;SDS011;7750;48.796;9.026;2023-05-17T01:20:30;5.37;;;2.40;;
15297;SDS011;7750;48.796;9.026;2023-05-17T01:31:08;5.23;;;1.90;;
15297;SDS011;7750;48.796;9.026;2023-05-17T01:36:10;3.30;;;1.80;;
15297;SDS011;7750;48.796;9.026;2023-05-17T01:46:39;3.97;;;1.90;;
15297;SDS011;7750;48.796;9.026;2023-05-17T01:51:43;5.10;;;1.90;;
15297;SDS011;7750;48.796;9.026;2023-05-17T01:56:50;2.30;;;1.73;;
15297;SDS011;7750;48.796;9.026;2023-05-17T02:01:57;4.70;;;1.73;;
15297;SDS011;7750;48.796;9.026;2023-05-17T02:07:07;5.80;;;1.63;;
15297;SDS011;7750;48.796;9.026;2023-05-17T02:12:08;3.17;;;1.70;;
15297;SDS011;7750;48.796;9.026;2023-05-17T02:17:09;2.70;;;1.80;;
15297;SDS011;7750;48.796;9.026;2023-05-17T02:22:09;1.90;;;1.40;;
15297;SDS011;7750;48.796;9.026;2023-05-17T02:27:10;2.70;;;1.90;;
15297;SDS011;7750;48.796;9.026;2023-05-17T02:32:10;3.53;;;1.70;;
15297;SDS011;7750;48.796;9.026;2023-05-17T02:37:11;5.67;;;1.97;;
15297;SDS011;7750;48.796;9.026;2023-05-17T02:42:12;3.93;;;1.50;;
15297;SDS011;7750;48.796;9.026;2023-05-17T02:47:13;8.70;;;2.20;;
15297;SDS011;7750;48.796;9.026;2023-05-17T02:52:14;5.83;;;2.00;;
15297;SDS011;7750;48.796;9.026;2023-05-17T02:57:15;3.10;;;1.50;;
15297;SDS011;7750;48.796;9.026;2023-05-17T03:02:15;2.37;;;1.37;;
15297;SDS011;7750;48.796;9.026;2023-05-17T03:07:16;5.10;;;1.97;;
15297;SDS011;7750;48.796;9.026;2023-05-17T03:12:17;3.10;;;1.60;;
15297;SDS011;7750;48.796;9.026;2023-05-17T03:17:17;3.77;;;1.80;;
15297;SDS011;7750;48.796;9.026;2023-05-17T03:22:18;4.17;;;1.83;;
15297;SDS011;7750;48.796;9.026;2023-05-17T03:27:18;6.70;;;1.70;;
15297;SDS011;7750;48.796;9.026;2023-05-17T03:32:19;2.67;;;1.73;;
15297;SDS011;7750;48.796;9.026;2023-05-17T03:37:20;6.60;;;2.33;;
15297;SDS011;7750;48.796;9.026;2023-05-17T03:42:20;6.53;;;1.67;;
15297;SDS011;7750;48.796;9.026;2023-05-17T03:47:21;5.20;;;2.60;;
15297;SDS011;7750;48.796;9.026;2023-05-17T03:52:22;5.50;;;2.00;;
15297;SDS011;7750;48.796;9.026;2023-05-17T03:57:23;3.80;;;1.73;;
15297;SDS011;7750;48.796;9.026;2023-05-17T04:02:23;3.50;;;1.90;;
15297;SDS011;7750;48.796;9.026;2023-05-17T04:07:24;4.37;;;1.97;;
15297;SDS011;7750;48.796;9.026;2023-05-17T04:12:25;3.03;;;1.80;;
15297;SDS011;7750;48.796;9.026;2023-05-17T04:17:26;5.40;;;1.80;;
15297;SDS011;7750;48.796;9.026;2023-05-17T04:22:27;2.50;;;1.67;;
15297;SDS011;7750;48.796;9.026;2023-05-17T04:27:27;3.20;;;1.80;;
15297;SDS011;7750;48.796;9.026;2023-05-17T04:32:28;3.00;;;1.80;;
15297;SDS011;7750;48.796;9.026;2023-05-17T04:37:28;2.83;;;1.70;;
15297;SDS011;7750;48.796;9.026;2023-05-17T04:42:29;3.53;;;1.53;;
15297;SDS011;7750;48.796;9.026;2023-05-17T04:47:30;5.03;;;1.90;;
15297;SDS011;7750;48.796;9.026;2023-05-17T04:52:31;4.20;;;2.20;;
15297;SDS011;7750;48.796;9.026;2023-05-17T04:57:31;3.07;;;2.00;;
15297;SDS011;7750;48.796;9.026;2023-05-17T05:02:32;2.30;;;1.77;;
15297;SDS011;7750;48.796;9.026;2023-05-17T05:07:33;2.10;;;1.70;;
15297;SDS011;7750;48.796;9.026;2023-05-17T05:12:33;2.67;;;2.03;;
15297;SDS011;7750;48.796;9.026;2023-05-17T05:17:34;3.87;;;2.60;;
15297;SDS011;7750;48.796;9.026;2023-05-17T05:22:35;3.63;;;2.10;;
15297;SDS011;7750;48.796;9.026;2023-05-17T05:27:35;6.83;;;2.80;;
15297;SDS011;7750;48.796;9.026;2023-05-17T05:32:36;4.77;;;3.20;;
15297;SDS011;7750;48.796;9.026;2023-05-17T05:37:37;4.83;;;3.57;;
15297;SDS011;7750;48.796;9.026;2023-05-17T05:42:37;5.53;;;3.00;;
15297;SDS011;7750;48.796;9.026;2023-05-17T05:47:38;7.60;;;3.27;;
15297;SDS011;7750;48.796;9.026;2023-05-17T05:52:38;7.57;;;3.17;;
15297;SDS011;7750;48.796;9.026;2023-05-17T05:57:39;4.50;;;2.87;;
15297;SDS011;7750;48.796;9.026;2023-05-17T06:02:40;5.43;;;3.07;;
15297;SDS011;7750;48.796;9.026;2023-05-17T06:07:40;7.43;;;3.10;;
15297;SDS011;7750;48.796;9.026;2023-05-17T06:12:41;5.00;;;2.43;;
15297;SDS011;7750;48.796;9.026;2023-05-17T06:17:41;8.40;;;2.80;;
15297;SDS011;7750;48.796;9.026;2023-05-17T06:22:42;6.23;;;2.63;;
15297;SDS011;7750;48.796;9.026;2023-05-17T06:27:43;7.00;;;2.37;;
15297;SDS011;7750;48.796;9.026;2023-05-17T06:32:44;4.20;;;2.90;;
15297;SDS011;7750;48.796;9.026;2023-05-17T06:37:44;5.00;;;2.70;;
15297;SDS011;7750;48.796;9.026;2023-05-17T06:42:45;6.80;;;2.80;;
15297;SDS011;7750;48.796;9.026;2023-05-17T06:47:46;5.53;;;3.07;;
15297;SDS011;7750;48.796;9.026;2023-05-17T06:52:47;6.60;;;3.03;;
15297;SDS011;7750;48.796;9.026;2023-05-17T06:57:47;10.07;;;3.00;;
15297;SDS011;7750;48.796;9.026;2023-05-17T07:02:48;4.30;;;2.50;;
15297;SDS011;7750;48.796;9.026;2023-05-17T07:07:49;5.00;;;3.00;;
15297;SDS011;7750;48.796;9.026;2023-05-17T07:12:50;5.50;;;2.97;;
15297;SDS011;7750;48.796;9.026;2023-05-17T07:17:51;4.43;;;2.93;;
15297;SDS011;7750;48.796;9.026;2023-05-17T07:22:51;5.93;;;3.47;;
15297;SDS011;7750;48.796;9.026;2023-05-17T07:27:52;4.97;;;3.00;;
15297;SDS011;7750;48.796;9.026;2023-05-17T07:32:53;8.20;;;3.70;;
15297;SDS011;7750;48.796;9.026;2023-05-17T07:37:53;5.20;;;3.00;;
15297;SDS011;7750;48.796;9.026;2023-05-17T07:42:54;7.60;;;4.07;;
15297;SDS011;7750;48.796;9.026;2023-05-17T07:47:55;6.10;;;3.50;;
15297;SDS011;7750;48.796;9.026;2023-05-17T07:52:55;6.37;;;3.67;;
15297;SDS011;7750;48.796;9.026;2023-05-17T07:57:56;9.57;;;4.40;;
15297;SDS011;7750;48.796;9.026;2023-05-17T08:02:57;8.73;;;4.10;;
15297;SDS011;7750;48.796;9.026;2023-05-17T08:07:58;6.03;;;3.80;;
15297;SDS011;7750;48.796;9.026;2023-05-17T08:12:59;10.77;;;4.57;;
15297;SDS011;7750;48.796;9.026;2023-05-17T08:17:59;6.10;;;3.90;;
15297;SDS011;7750;48.796;9.026;2023-05-17T08:23:00;10.80;;;5.10;;
15297;SDS011;7750;48.796;9.026;2023-05-17T08:28:01;11.27;;;4.00;;
15297;SDS011;7750;48.796;9.026;2023-05-17T08:33:02;6.73;;;4.03;;
15297;SDS011;7750;48.796;9.026;2023-05-17T08:38:03;7.77;;;4.07;;
15297;SDS011;7750;48.796;9.026;2023-05-17T08:43:03;10.33;;;4.70;;
15297;SDS011;7750;48.796;9.026;2023-05-17T08:48:05;8.60;;;4.23;;
15297;SDS011;7750;48.796;9.026;2023-05-17T08:53:07;6.63;;;4.03;;
15297;SDS011;7750;48.796;9.026;2023-05-17T08:58:09;7.27;;;3.80;;
15297;SDS011;7750;48.796;9.026;2023-05-17T09:03:12;9.00;;;3.90;;
15297;SDS011;7750;48.796;9.026;2023-05-17T09:08:17;8.70;;;4.70;;
15297;SDS011;7750;48.796;9.026;2023-05-17T09:13:20;7.63;;;3.83;;
15297;SDS011;7750;48.796;9.026;2023-05-17T09:18:30;6.57;;;3.63;;
15297;SDS011;7750;48.796;9.026;2023-05-17T09:23:31;8.33;;;3.83;;
15297;SDS011;7750;48.796;9.026;2023-05-17T09:28:37;8.20;;;3.67;;
15297;SDS011;7750;48.796;9.026;2023-05-17T09:33:46;5.33;;;3.33;;
15297;SDS011;7750;48.796;9.026;2023-05-17T09:44:02;6.60;;;3.80;;
15297;SDS011;7750;48.796;9.026;2023-05-17T09:49:11;5.63;;;3.63;;
15297;SDS011;7750;48.796;9.026;2023-05-17T09:54:12;5.97;;;4.27;;
15297;SDS011;7750;48.796;9.026;2023-05-17T09:59:13;10.03;;;3.90;;
15297;SDS011;7750;48.796;9.026;2023-05-17T10:04:15;6.53;;;4.10;;
15297;SDS011;7750;48.796;9.026;2023-05-17T10:09:22;7.63;;;3.77;;
15297;SDS011;7750;48.796;9.026;2023-05-17T10:14:27;8.90;;;4.17;;
15297;SDS011;7750;48.796;9.026;2023-05-17T10:19:32;6.10;;;3.70;;
15297;SDS011;7750;48.796;9.026;2023-05-17T10:24:34;7.13;;;4.33;;
15297;SDS011;7750;48.796;9.026;2023-05-17T10:29:37;5.50;;;4.00;;
15297;SDS011;7750;48.796;9.026;2023-05-17T10:34:38;8.83;;;4.27;;
15297;SDS011;7750;48.796;9.026;2023-05-17T10:39:39;7.80;;;4.07;;
15297;SDS011;7750;48.796;9.026;2023-05-17T10:44:42;6.30;;;3.93;;
15297;SDS011;7750;48.796;9.026;2023-05-17T10:49:43;8.50;;;4.40;;
15297;SDS011;7750;48.796;9.026;2023-05-17T10:54:47;10.07;;;4.77;;
15297;SDS011;7750;48.796;9.026;2023-05-17T10:59:55;7.23;;;3.73;;
15297;SDS011;7750;48.796;9.026;2023-05-17T11:05:00;7.10;;;3.87;;
15297;SDS011;7750;48.796;9.026;2023-05-17T11:15:23;10.30;;;3.67;;
15297;SDS011;7750;48.796;9.026;2023-05-17T11:25:32;10.13;;;5.57;;
15297;SDS011;7750;48.796;9.026;2023-05-17T11:30:39;7.70;;;4.53;;
15297;SDS011;7750;48.796;9.026;2023-05-17T11:35:40;10.93;;;4.10;;
15297;SDS011;7750;48.796;9.026;2023-05-17T11:40:42;8.90;;;5.00;;
15297;SDS011;7750;48.796;9.026;2023-05-17T11:45:45;7.07;;;3.50;;
15297;SDS011;7750;48.796;9.026;2023-05-17T11:50:50;7.77;;;4.80;;
15297;SDS011;7750;48.796;9.026;2023-05-17T11:55:52;8.57;;;3.93;;
15297;SDS011;7750;48.796;9.026;2023-05-17T12:00:54;6.73;;;3.50;;
15297;SDS011;7750;48.796;9.026;2023-05-17T12:11:03;6.67;;;3.83;;
15297;SDS011;7750;48.796;9.026;2023-05-17T12:16:13;5.97;;;3.57;;
15297;SDS011;7750;48.796;9.026;2023-05-17T12:21:15;7.63;;;3.80;;
15297;SDS011;7750;48.796;9.026;2023-05-17T12:31:19;8.20;;;3.90;;
15297;SDS011;7750;48.796;9.026;2023-05-17T12:36:26;7.63;;;3.63;;
15297;SDS011;7750;48.796;9.026;2023-05-17T12:41:28;8.33;;;3.93;;
15297;SDS011;7750;48.796;9.026;2023-05-17T12:46:30;6.93;;;3.70;;
15297;SDS011;7750;48.796;9.026;2023-05-17T12:51:41;6.13;;;3.77;;
15297;SDS011;7750;48.796;9.026;2023-05-17T12:56:43;7.50;;;3.60;;
15297;SDS011;7750;48.796;9.026;2023-05-17T13:01:45;6.87;;;4.20;;
15297;SDS011;7750;48.796;9.026;2023-05-17T13:06:57;5.07;;;3.77;;
15297;SDS011;7750;48.796;9.026;2023-05-17T13:12:00;9.30;;;3.60;;
15297;SDS011;7750;48.796;9.026;2023-05-17T13:17:01;9.43;;;4.43;;
15297;SDS011;7750;48.796;9.026;2023-05-17T13:22:07;7.47;;;4.40;;
15297;SDS011;7750;48.796;9.026;2023-05-17T13:27:08;10.30;;;5.30;;
15297;SDS011;7750;48.796;9.026;2023-05-17T13:32:10;10.70;;;5.23;;
15297;SDS011;7750;48.796;9.026;2023-05-17T13:37:11;7.63;;;4.40;;
15297;SDS011;7750;48.796;9.026;2023-05-17T13:42:12;7.00;;;3.83;;
15297;SDS011;7750;48.796;9.026;2023-05-17T13:47:13;6.90;;;4.23;;
15297;SDS011;7750;48.796;9.026;2023-05-17T13:52:14;7.60;;;4.20;;
15297;SDS011;7750;48.796;9.026;2023-05-17T13:57:17;13.87;;;4.80;;
15297;SDS011;7750;48.796;9.026;2023-05-17T14:02:18;5.93;;;3.90;;
15297;SDS011;7750;48.796;9.026;2023-05-17T14:07:18;6.30;;;3.50;;
15297;SDS011;7750;48.796;9.026;2023-05-17T14:12:19;5.53;;;3.30;;
15297;SDS011;7750;48.796;9.026;2023-05-17T14:17:20;7.37;;;4.47;;
15297;SDS011;7750;48.796;9.026;2023-05-17T14:22:20;8.17;;;4.00;;
15297;SDS011;7750;48.796;9.026;2023-05-17T14:27:21;12.33;;;3.83;;
15297;SDS011;7750;48.796;9.026;2023-05-17T14:32:22;6.73;;;4.17;;
15297;SDS011;7750;48.796;9.026;2023-05-17T14:37:22;11.40;;;3.67;;
15297;SDS011;7750;48.796;9.026;2023-05-17T14:42:24;8.00;;;3.70;;
15297;SDS011;7750;48.796;9.026;2023-05-17T14:47:25;9.40;;;4.67;;
15297;SDS011;7750;48.796;9.026;2023-05-17T14:52:26;5.30;;;3.40;;
15297;SDS011;7750;48.796;9.026;2023-05-17T14:57:29;7.70;;;4.30;;
15297;SDS011;7750;48.796;9.026;2023-05-17T15:02:30;6.10;;;3.40;;
15297;SDS011;7750;48.796;9.026;2023-05-17T15:07:31;8.70;;;3.80;;
15297;SDS011;7750;48.796;9.026;2023-05-17T15:12:33;8.10;;;4.17;;
15297;SDS011;7750;48.796;9.026;2023-05-17T15:17:35;7.90;;;3.70;;
15297;SDS011;7750;48.796;9.026;2023-05-17T15:22:36;9.13;;;3.93;;
15297;SDS011;7750;48.796;9.026;2023-05-17T15:27:36;8.70;;;3.97;;
15297;SDS011;7750;48.796;9.026;2023-05-17T15:32:37;10.77;;;3.90;;
15297;SDS011;7750;48.796;9.026;2023-05-17T15:37:37;9.30;;;4.50;;
15297;SDS011;7750;48.796;9.026;2023-05-17T15:42:38;6.60;;;3.80;;
15297;SDS011;7750;48.796;9.026;2023-05-17T15:47:41;5.13;;;3.87;;
15297;SDS011;7750;48.796;9.026;2023-05-17T15:52:42;6.23;;;3.93;;
15297;SDS011;7750;48.796;9.026;2023-05-17T15:57:43;7.53;;;3.87;;
15297;SDS011;7750;48.796;9.026;2023-05-17T16:02:43;5.23;;;3.70;;
15297;SDS011;7750;48.796;9.026;2023-05-17T16:07:44;10.30;;;3.70;;
15297;SDS011;7750;48.796;9.026;2023-05-17T16:12:45;6.43;;;3.50;;
15297;SDS011;7750;48.796;9.026;2023-05-17T16:17:47;5.57;;;3.67;;
15297;SDS011;7750;48.796;9.026;2023-05-17T16:22:50;7.90;;;4.10;;
15297;SDS011;7750;48.796;9.026;2023-05-17T16:27:52;8.37;;;4.77;;
15297;SDS011;7750;48.796;9.026;2023-05-17T16:32:53;7.67;;;3.63;;
15297;SDS011;7750;48.796;9.026;2023-05-17T16:37:53;6.17;;;3.90;;
15297;SDS011;7750;48.796;9.026;2023-05-17T16:42:54;5.30;;;3.70;;
15297;SDS011;7750;48.796;9.026;2023-05-17T16:47:55;9.33;;;4.30;;
15297;SDS011;7750;48.796;9.026;2023-05-17T16:52:55;9.70;;;3.97;;
15297;SDS011;7750;48.796;9.026;2023-05-17T16:57:56;6.73;;;4.17;;
15297;SDS011;7750;48.796;9.026;2023-05-17T17:02:57;7.33;;;3.90;;
15297;SDS011;7750;48.796;9.026;2023-05-17T17:07:58;4.90;;;3.00;;
15297;SDS011;7750;48.796;9.026;2023-05-17T17:12:58;10.50;;;3.70;;
15297;SDS011;7750;48.796;9.026;2023-05-17T17:17:59;5.90;;;3.23;;
15297;SDS011;7750;48.796;9.026;2023-05-17T17:22:59;9.00;;;3.63;;
15297;SDS011;7750;48.796;9.026;2023-05-17T17:28:00;9.23;;;4.13;;
15297;SDS011;7750;48.796;9.026;2023-05-17T17:33:01;6.60;;;3.47;;
15297;SDS011;7750;48.796;9.026;2023-05-17T17:38:01;5.10;;;3.60;;
15297;SDS011;7750;48.796;9.026;2023-05-17T17:43:02;5.97;;;3.17;;
15297;SDS011;7750;48.796;9.026;2023-05-17T17:48:02;5.70;;;3.47;;
15297;SDS011;7750;48.796;9.026;2023-05-17T17:53:03;6.00;;;3.70;;
15297;SDS011;7750;48.796;9.026;2023-05-17T17:58:04;6.50;;;3.67;;
15297;SDS011;7750;48.796;9.026;2023-05-17T18:03:04;4.80;;;3.30;;
15297;SDS011;7750;48.796;9.026;2023-05-17T18:08:05;6.63;;;3.47;;
15297;SDS011;7750;48.796;9.026;2023-05-17T18:13:05;8.63;;;4.10;;
15297;SDS011;7750;48.796;9.026;2023-05-17T18:18:06;7.47;;;3.60;;
15297;SDS011;7750;48.796;9.026;2023-05-17T18:23:07;6.73;;;3.50;;
15297;SDS011;7750;48.796;9.026;2023-05-17T18:28:07;5.00;;;3.40;;
15297;SDS011;7750;48.796;9.026;2023-05-17T18:33:08;7.10;;;3.47;;
15297;SDS011;7750;48.796;9.026;2023-05-17T18:38:08;4.43;;;3.03;;
15297;SDS011;7750;48.796;9.026;2023-05-17T18:43:09;5.37;;;2.80;;
15297;SDS011;7750;48.796;9.026;2023-05-17T18:48:11;6.43;;;3.70;;
15297;SDS011;7750;48.796;9.026;2023-05-17T18:53:11;7.87;;;4.30;;
15297;SDS011;7750;48.796;9.026;2023-05-17T18:58:13;7.03;;;4.20;;
15297;SDS011;7750;48.796;9.026;2023-05-17T19:03:14;8.40;;;4.00;;
15297;SDS011;7750;48.796;9.026;2023-05-17T19:08:14;5.40;;;3.67;;
15297;SDS011;7750;48.796;9.026;2023-05-17T19:13:15;6.10;;;3.40;;
15297;SDS011;7750;48.796;9.026;2023-05-17T19:18:15;5.40;;;3.50;;
15297;SDS011;7750;48.796;9.026;2023-05-17T19:23:16;6.10;;;3.40;;
15297;SDS011;7750;48.796;9.026;2023-05-17T19:28:16;6.70;;;3.60;;
15297;SDS011;7750;48.796;9.026;2023-05-17T19:33:17;4.90;;;3.27;;
15297;SDS011;7750;48.796;9.026;2023-05-17T19:38:18;5.57;;;3.77;;
15297;SDS011;7750;48.796;9.026;2023-05-17T19:43:18;5.27;;;3.27;;
15297;SDS011;7750;48.796;9.026;2023-05-17T19:48:19;8.40;;;3.80;;
15297;SDS011;7750;48.796;9.026;2023-05-17T19:53:20;6.00;;;3.77;;
15297;SDS011;7750;48.796;9.026;2023-05-17T19:58:22;5.13;;;3.73;;
15297;SDS011;7750;48.796;9.026;2023-05-17T20:03:24;7.40;;;3.80;;
15297;SDS011;7750;48.796;9.026;2023-05-17T20:08:26;6.60;;;3.97;;
15297;SDS011;7750;48.796;9.026;2023-05-17T20:13:26;6.80;;;3.70;;
15297;SDS011;7750;48.796;9.026;2023-05-17T20:18:28;7.00;;;3.70;;
15297;SDS011;7750;48.796;9.026;2023-05-17T20:23:29;7.70;;;3.63;;
15297;SDS011;7750;48.796;9.026;2023-05-17T20:28:30;8.27;;;4.13;;
15297;SDS011;7750;48.796;9.026;2023-05-17T20:33:30;5.17;;;3.80;;
15297;SDS011;7750;48.796;9.026;2023-05-17T20:38:31;8.27;;;4.50;;
15297;SDS011;7750;48.796;9.026;2023-05-17T20:43:32;6.13;;;4.17;;
15297;SDS011;7750;48.796;9.026;2023-05-17T20:48:33;8.33;;;3.60;;
15297;SDS011;7750;48.796;9.026;2023-05-17T20:53:35;6.27;;;4.17;;
15297;SDS011;7750;48.796;9.026;2023-05-17T20:58:36;9.20;;;4.60;;
15297;SDS011;7750;48.796;9.026;2023-05-17T21:03:36;7.40;;;4.10;;
15297;SDS011;7750;48.796;9.026;2023-05-17T21:08:38;7.23;;;4.93;;
15297;SDS011;7750;48.796;9.026;2023-05-17T21:13:39;8.60;;;5.80;;
15297;SDS011;7750;48.796;9.026;2023-05-17T21:18:39;9.50;;;5.30;;
15297;SDS011;7750;48.796;9.026;2023-05-17T21:23:40;8.93;;;5.50;;
15297;SDS011;7750;48.796;9.026;2023-05-17T21:28:41;12.47;;;6.67;;
15297;SDS011;7750;48.796;9.026;2023-05-17T21:33:42;11.27;;;6.50;;
15297;SDS011;7750;48.796;9.026;2023-05-17T21:38:42;7.70;;;5.77;;
15297;SDS011;7750;48.796;9.026;2023-05-17T21:43:43;7.90;;;5.13;;
15297;SDS011;7750;48.796;9.026;2023-05-17T21:48:45;8.90;;;5.27;;
15297;SDS011;7750;48.796;9.026;2023-05-17T21:53:45;6.80;;;4.50;;
15297;SDS011;7750;48.796;9.026;2023-05-17T21:58:49;6.73;;;4.57;;
15297;SDS011;7750;48.796;9.026;2023-05-17T22:03:49;7.53;;;5.37;;
15297;SDS011;7750;48.796;9.026;2023-05-17T22:08:54;10.10;;;5.53;;
15297;SDS011;7750;48.796;9.026;2023-05-17T22:13:54;7.20;;;5.10;;
15297;SDS011;7750;48.796;9.026;2023-05-17T22:18:55;6.00;;;4.83;;
15297;SDS011;7750;48.796;9.026;2023-05-17T22:23:59;7.60;;;5.17;;
15297;SDS011;7750;48.796;9.026;2023-05-17T22:28:59;9.00;;;5.70;;
15297;SDS011;7750;48.796;9.026;2023-05-17T22:34:00;8.20;;;5.60;;
15297;SDS011;7750;48.796;9.026;2023-05-17T22:39:01;7.33;;;5.10;;
15297;SDS011;7750;48.796;9.026;2023-05-17T22:44:01;11.00;;;5.07;;
15297;SDS011;7750;48.796;9.026;2023-05-17T22:49:02;9.50;;;5.60;;
15297;SDS011;7750;48.796;9.026;2023-05-17T22:54:03;8.70;;;5.70;;
15297;SDS011;7750;48.796;9.026;2023-05-17T22:59:04;7.27;;;5.13;;
15297;SDS011;7750;48.796;9.026;2023-05-17T23:04:04;7.97;;;5.53;;
15297;SDS011;7750;48.796;9.026;2023-05-17T23:09:05;6.93;;;5.40;;
15297;SDS011;7750;48.796;9.026;2023-05-17T23:14:06;9.60;;;6.37;;
15297;SDS011;7750;48.796;9.026;2023-05-17T23:19:06;8.57;;;5.60;;
15297;SDS011;7750;48.796;9.026;2023-05-17T23:24:07;10.10;;;6.70;;
15297;SDS011;7750;48.796;9.026;2023-05-17T23:29:08;9.50;;;6.13;;
15297;SDS011;7750;48.796;9.026;2023-05-17T23:34:09;8.53;;;5.60;;
15297;SDS011;7750;48.796;9.026;2023-05-17T23:39:10;8.73;;;5.27;;
15297;SDS011;7750;48.796;9.026;2023-05-17T23:44:10;7.47;;;5.77;;
15297;SDS011;7750;48.796;9.026;2023-05-17T23:49:11;8.10;;;5.03;;
15297;SDS011;7750;48.796;9.026;2023-05-17T23:54:13;8.20;;;6.07;;
15297;SDS011;7750;48.796;9.026;2023-05-17T23:59:15;8.87;;;6.30;;
